Time;durP1;ratioP1;P1;durP2;ratioP2;P2;SDS_P1;SDS_P2;PMS_P1;PMS_P2;Temp;Humidity;BMP_temperature;BMP_pressure;BME280_temperature;BME280_humidity;BME280_pressure;Samples;Min_cycle;Max_cycle;Signal;HPM_P1;HPM_P2
2021/07/15 00:01:42;;;;;;;2.33;2.22;;;;;;;;;;5092645;28;20077;-59
2021/07/15 00:04:07;;;;;;;2.40;2.20;;;;;;;;;;5091865;28;20061;-59
2021/07/15 00:06:33;;;;;;;3.20;2.78;;;;;;;;;;5089146;28;20020;-59
2021/07/15 00:08:58;;;;;;;3.13;2.58;;;;;;;;;;5092437;28;20052;-59
2021/07/15 00:11:26;;;;;;;3.22;2.40;;;;;;;;;;5092321;28;20032;-59
2021/07/15 00:13:51;;;;;;;2.33;2.08;;;;;;;;;;5091583;28;20024;-59
2021/07/15 00:16:17;;;;;;;2.40;2.20;;;;;;;;;;5088412;28;20077;-58
2021/07/15 00:18:44;;;;;;;2.15;2.05;;;;;;;;;;5092511;28;20028;-58
2021/07/15 00:21:11;;;;;;;2.45;1.95;;;;;;;;;;5090300;28;20471;-58
2021/07/15 00:23:37;;;;;;;2.70;1.60;;;;;;;;;;5092185;28;20379;-57
2021/07/15 00:26:04;;;;;;;2.25;1.48;;;;;;;;;;5088077;28;20048;-58
2021/07/15 00:28:29;;;;;;;1.80;1.70;;;;;;;;;;5091995;28;20031;-58
2021/07/15 00:30:54;;;;;;;2.17;1.42;;;;;;;;;;5091581;28;20386;-58
2021/07/15 00:33:20;;;;;;;2.30;1.50;;;;;;;;;;5092571;28;20016;-60
2021/07/15 00:35:45;;;;;;;1.63;1.52;;;;;;;;;;5088729;28;20394;-59
2021/07/15 00:38:10;;;;;;;2.15;1.60;;;;;;;;;;5092116;28;20056;-60
2021/07/15 00:40:36;;;;;;;1.67;1.20;;;;;;;;;;5083877;28;20051;-59
2021/07/15 00:43:02;;;;;;;3.10;1.40;;;;;;;;;;5091244;28;20411;-60
2021/07/15 00:45:27;;;;;;;2.05;1.67;;;;;;;;;;5088182;28;20028;-59
2021/07/15 00:47:52;;;;;;;1.95;1.50;;;;;;;;;;5090544;28;20078;-59
2021/07/15 00:50:19;;;;;;;3.15;1.63;;;;;;;;;;5091218;28;20020;-58
2021/07/15 00:52:45;;;;;;;1.63;1.50;;;;;;;;;;5091021;28;20116;-59
2021/07/15 00:55:20;;;;;;;1.85;1.75;;;;;;;;;;5088909;28;20056;-59
2021/07/15 00:57:47;;;;;;;2.75;1.77;;;;;;;;;;5093104;28;20023;-59
2021/07/15 01:00:14;;;;;;;3.40;1.70;;;;;;;;;;5087644;28;20028;-59
2021/07/15 01:02:39;;;;;;;3.20;1.55;;;;;;;;;;5091869;28;20070;-59
2021/07/15 01:05:13;;;;;;;1.95;1.45;;;;;;;;;;5087664;28;20020;-59
2021/07/15 01:07:39;;;;;;;2.40;1.30;;;;;;;;;;5077691;28;20028;-59
2021/07/15 01:10:05;;;;;;;2.22;2.13;;;;;;;;;;5077391;28;20028;-59
2021/07/15 01:12:46;;;;;;;3.75;3.45;;;;;;;;;;5071627;28;20016;-59
2021/07/15 01:15:12;;;;;;;3.88;3.00;;;;;;;;;;5086761;28;20387;-59
2021/07/15 01:17:57;;;;;;;4.15;2.97;;;;;;;;;;5086379;28;20474;-59
2021/07/15 01:20:41;;;;;;;3.10;2.90;;;;;;;;;;5079631;28;20036;-59
2021/07/15 01:23:25;;;;;;;3.55;3.28;;;;;;;;;;5091903;28;20035;-59
2021/07/15 01:25:59;;;;;;;2.95;2.58;;;;;;;;;;5088822;28;20012;-59
2021/07/15 01:28:27;;;;;;;2.50;2.30;;;;;;;;;;5090537;28;20048;-59
2021/07/15 01:30:54;;;;;;;3.45;2.70;;;;;;;;;;5091519;28;20031;-59
2021/07/15 01:33:30;;;;;;;3.72;2.55;;;;;;;;;;5094326;28;20020;-59
2021/07/15 01:35:58;;;;;;;3.03;2.72;;;;;;;;;;5092767;28;20027;-60
2021/07/15 01:38:31;;;;;;;3.58;2.72;;;;;;;;;;5095087;28;20027;-59
2021/07/15 01:41:04;;;;;;;2.85;2.65;;;;;;;;;;5095048;28;20020;-59
2021/07/15 01:43:34;;;;;;;2.60;2.40;;;;;;;;;;5095219;28;20035;-59
2021/07/15 01:46:00;;;;;;;4.53;2.78;;;;;;;;;;5092476;28;20059;-59
2021/07/15 01:48:26;;;;;;;3.78;2.92;;;;;;;;;;5095597;28;20024;-59
2021/07/15 01:50:52;;;;;;;3.40;2.90;;;;;;;;;;5095092;28;20034;-61
2021/07/15 01:53:17;;;;;;;3.42;2.50;;;;;;;;;;5095168;28;20066;-59
2021/07/15 01:55:43;;;;;;;2.33;2.22;;;;;;;;;;5092474;28;20032;-59
2021/07/15 01:58:09;;;;;;;4.13;2.60;;;;;;;;;;5094774;28;20077;-58
2021/07/15 02:00:35;;;;;;;2.65;2.10;;;;;;;;;;5095209;28;20028;-58
2021/07/15 02:03:02;;;;;;;2.13;2.00;;;;;;;;;;5095096;28;20024;-58
2021/07/15 02:05:28;;;;;;;2.53;2.22;;;;;;;;;;5092340;28;20012;-58
2021/07/15 02:07:54;;;;;;;3.38;2.33;;;;;;;;;;5094887;28;20073;-58
2021/07/15 02:10:21;;;;;;;2.75;2.50;;;;;;;;;;5094640;28;20030;-58
2021/07/15 02:12:47;;;;;;;3.30;3.00;;;;;;;;;;5094328;28;20041;-58
2021/07/15 02:15:12;;;;;;;3.15;2.85;;;;;;;;;;5091891;28;20114;-59
2021/07/15 02:17:41;;;;;;;3.63;3.17;;;;;;;;;;5094561;28;20105;-60
2021/07/15 02:20:08;;;;;;;2.92;2.67;;;;;;;;;;5094613;28;20035;-60
2021/07/15 02:22:34;;;;;;;3.42;2.90;;;;;;;;;;5094638;28;20502;-60
2021/07/15 02:25:00;;;;;;;3.90;3.60;;;;;;;;;;5091234;28;20122;-59
2021/07/15 02:27:26;;;;;;;3.47;3.28;;;;;;;;;;5093813;28;20052;-59
2021/07/15 02:29:51;;;;;;;3.60;3.40;;;;;;;;;;5094514;28;20103;-59
2021/07/15 02:32:16;;;;;;;4.05;3.75;;;;;;;;;;5094768;28;20028;-59
2021/07/15 02:34:51;;;;;;;4.30;3.90;;;;;;;;;;5094026;28;20030;-60
2021/07/15 02:37:19;;;;;;;4.70;4.28;;;;;;;;;;5093396;28;20066;-59
2021/07/15 02:39:44;;;;;;;3.65;3.30;;;;;;;;;;5094048;28;20027;-59
2021/07/15 02:42:09;;;;;;;3.50;3.20;;;;;;;;;;5094021;28;20036;-59
2021/07/15 02:44:36;;;;;;;3.30;3.00;;;;;;;;;;5092430;28;20020;-59
2021/07/15 02:47:01;;;;;;;3.63;3.42;;;;;;;;;;5092477;28;20049;-59
2021/07/15 02:49:26;;;;;;;3.28;2.97;;;;;;;;;;5093714;28;20449;-59
2021/07/15 02:51:51;;;;;;;3.00;2.80;;;;;;;;;;5093973;28;20061;-59
2021/07/15 02:54:19;;;;;;;3.45;3.15;;;;;;;;;;5093325;28;20055;-59
2021/07/15 02:56:53;;;;;;;3.42;3.22;;;;;;;;;;5091839;28;20445;-59
2021/07/15 02:59:37;;;;;;;3.33;3.10;;;;;;;;;;5093417;28;20034;-60
2021/07/15 03:02:06;;;;;;;4.03;3.10;;;;;;;;;;5093685;28;20024;-59
2021/07/15 03:04:55;;;;;;;3.70;2.55;;;;;;;;;;5092665;28;20051;-59
2021/07/15 03:07:20;;;;;;;3.72;2.70;;;;;;;;;;5092735;28;20482;-59
2021/07/15 03:09:48;;;;;;;2.83;2.63;;;;;;;;;;5093490;28;20024;-59
2021/07/15 03:12:18;;;;;;;4.00;2.90;;;;;;;;;;5093837;28;20012;-59
2021/07/15 03:14:45;;;;;;;3.10;2.80;;;;;;;;;;5087282;28;20018;-59
2021/07/15 03:17:12;;;;;;;3.33;3.00;;;;;;;;;;5092003;28;20055;-59
2021/07/15 03:19:40;;;;;;;3.25;2.95;;;;;;;;;;5093243;28;20039;-58
2021/07/15 03:22:07;;;;;;;3.10;2.80;;;;;;;;;;5092988;28;20031;-58
2021/07/15 03:24:34;;;;;;;2.90;2.70;;;;;;;;;;5093185;28;20423;-58
2021/07/15 03:27:03;;;;;;;3.63;3.33;;;;;;;;;;5090892;28;20024;-58
2021/07/15 03:29:29;;;;;;;4.80;3.47;;;;;;;;;;5093370;28;20055;-58
2021/07/15 03:31:55;;;;;;;4.05;2.97;;;;;;;;;;5093434;28;20027;-58
2021/07/15 03:34:21;;;;;;;4.18;3.65;;;;;;;;;;5092732;28;20031;-58
2021/07/15 03:36:50;;;;;;;4.32;3.17;;;;;;;;;;5090950;28;20115;-58
2021/07/15 03:39:17;;;;;;;4.82;3.58;;;;;;;;;;5092627;28;20020;-58
2021/07/15 03:41:42;;;;;;;5.35;3.63;;;;;;;;;;5092864;28;20467;-58
2021/07/15 03:44:08;;;;;;;4.15;3.75;;;;;;;;;;5092683;28;20043;-59
2021/07/15 03:46:33;;;;;;;4.50;4.10;;;;;;;;;;5089997;28;20023;-58
2021/07/15 03:48:59;;;;;;;4.63;3.85;;;;;;;;;;5092946;28;20016;-58
2021/07/15 03:51:25;;;;;;;5.85;4.20;;;;;;;;;;5092736;28;20059;-59
2021/07/15 03:53:50;;;;;;;4.50;4.07;;;;;;;;;;5092605;28;20040;-59
2021/07/15 03:56:16;;;;;;;4.75;4.22;;;;;;;;;;5091462;28;20374;-59
2021/07/15 03:58:44;;;;;;;7.63;5.07;;;;;;;;;;5087459;28;20012;-58
2021/07/15 04:01:10;;;;;;;5.07;4.57;;;;;;;;;;5092432;28;20493;-59
2021/07/15 04:03:35;;;;;;;7.78;4.43;;;;;;;;;;5092794;28;20474;-58
2021/07/15 04:06:01;;;;;;;4.93;4.07;;;;;;;;;;5090061;28;20027;-59
2021/07/15 04:08:27;;;;;;;5.22;4.55;;;;;;;;;;5092908;28;20078;-58
2021/07/15 04:10:53;;;;;;;7.13;4.97;;;;;;;;;;5091570;28;20016;-58
2021/07/15 04:13:19;;;;;;;4.88;4.47;;;;;;;;;;5092284;28;20367;-59
2021/07/15 04:15:53;;;;;;;5.80;5.20;;;;;;;;;;5084809;28;20141;-59
2021/07/15 04:18:20;;;;;;;5.65;5.10;;;;;;;;;;5087530;28;20047;-58
2021/07/15 04:20:45;;;;;;;6.75;5.03;;;;;;;;;;5092101;28;20383;-59
2021/07/15 04:23:11;;;;;;;5.13;4.72;;;;;;;;;;5092777;28;20032;-58
2021/07/15 04:25:37;;;;;;;4.90;4.35;;;;;;;;;;5089926;28;20027;-58
2021/07/15 04:28:03;;;;;;;4.22;3.88;;;;;;;;;;5092160;28;20016;-58
2021/07/15 04:30:29;;;;;;;4.32;3.85;;;;;;;;;;5092040;28;20027;-58
2021/07/15 04:33:02;;;;;;;4.53;4.13;;;;;;;;;;5090466;28;20016;-58
2021/07/15 04:35:29;;;;;;;4.65;4.25;;;;;;;;;;5088821;28;20100;-58
2021/07/15 04:37:54;;;;;;;5.05;4.30;;;;;;;;;;5091985;28;20047;-58
2021/07/15 04:40:21;;;;;;;4.80;3.58;;;;;;;;;;5091082;28;20539;-59
2021/07/15 04:42:49;;;;;;;4.20;3.65;;;;;;;;;;5090906;28;20031;-59
2021/07/15 04:45:15;;;;;;;4.43;4.10;;;;;;;;;;5089913;28;20034;-58
2021/07/15 04:47:41;;;;;;;4.47;4.18;;;;;;;;;;5092060;28;20107;-59
2021/07/15 04:50:09;;;;;;;4.25;3.75;;;;;;;;;;5090598;28;20024;-58
2021/07/15 04:52:35;;;;;;;3.85;3.40;;;;;;;;;;5091707;28;20078;-59
2021/07/15 04:55:01;;;;;;;3.38;3.03;;;;;;;;;;5088779;28;20028;-58
2021/07/15 04:57:26;;;;;;;4.35;3.53;;;;;;;;;;5090453;28;20016;-59
2021/07/15 04:59:52;;;;;;;3.53;3.22;;;;;;;;;;5089913;28;20348;-59
2021/07/15 05:02:20;;;;;;;3.67;3.38;;;;;;;;;;5090434;28;20020;-59
2021/07/15 05:04:45;;;;;;;4.38;3.05;;;;;;;;;;5090628;28;20501;-58
2021/07/15 05:07:10;;;;;;;3.90;2.58;;;;;;;;;;5088027;28;20024;-59
2021/07/15 05:09:35;;;;;;;4.68;3.00;;;;;;;;;;5091188;28;20032;-59
2021/07/15 05:12:01;;;;;;;3.65;2.55;;;;;;;;;;5091726;28;20012;-58
2021/07/15 05:14:27;;;;;;;3.25;2.10;;;;;;;;;;5091513;28;20104;-58
2021/07/15 05:16:52;;;;;;;3.53;2.40;;;;;;;;;;5087546;28;20059;-59
2021/07/15 05:19:17;;;;;;;2.90;2.60;;;;;;;;;;5091065;28;20024;-59
2021/07/15 05:21:42;;;;;;;2.90;2.50;;;;;;;;;;5090601;28;20028;-59
2021/07/15 05:24:08;;;;;;;3.05;2.80;;;;;;;;;;5075874;28;20039;-59
2021/07/15 05:26:33;;;;;;;3.90;2.60;;;;;;;;;;5084491;28;20028;-58
2021/07/15 05:28:58;;;;;;;3.22;2.70;;;;;;;;;;5089296;28;20085;-59
2021/07/15 05:31:24;;;;;;;4.38;2.88;;;;;;;;;;5089171;28;20107;-58
2021/07/15 05:33:49;;;;;;;5.75;2.85;;;;;;;;;;5090541;28;20460;-59
2021/07/15 05:36:14;;;;;;;4.75;2.75;;;;;;;;;;5087449;28;20512;-59
2021/07/15 05:38:42;;;;;;;3.70;3.03;;;;;;;;;;5089669;28;20058;-59
2021/07/15 05:41:07;;;;;;;4.47;2.92;;;;;;;;;;5088881;28;20576;-58
2021/07/15 05:43:33;;;;;;;2.55;2.00;;;;;;;;;;5090214;28;20111;-57
2021/07/15 05:45:58;;;;;;;2.58;1.98;;;;;;;;;;5087034;28;20020;-57
2021/07/15 05:48:23;;;;;;;2.90;2.00;;;;;;;;;;5090121;28;20099;-58
2021/07/15 05:50:48;;;;;;;1.88;1.70;;;;;;;;;;5081740;28;20417;-57
2021/07/15 05:53:14;;;;;;;2.65;1.80;;;;;;;;;;5089277;28;20048;-58
2021/07/15 05:55:39;;;;;;;2.45;1.58;;;;;;;;;;5087233;28;20051;-57
2021/07/15 05:58:04;;;;;;;2.22;1.30;;;;;;;;;;5086325;28;20039;-58
2021/07/15 06:00:29;;;;;;;3.22;1.52;;;;;;;;;;5089948;28;20059;-59
2021/07/15 06:02:55;;;;;;;3.17;1.52;;;;;;;;;;5090049;28;20028;-57
2021/07/15 06:05:21;;;;;;;3.30;1.20;;;;;;;;;;5087323;28;20024;-58
2021/07/15 06:07:46;;;;;;;1.30;1.00;;;;;;;;;;5089367;28;20067;-58
2021/07/15 06:10:11;;;;;;;2.42;1.30;;;;;;;;;;5090263;28;20375;-59
2021/07/15 06:12:37;;;;;;;1.85;1.13;;;;;;;;;;5088729;28;20430;-59
2021/07/15 06:15:03;;;;;;;1.80;1.00;;;;;;;;;;5087044;28;20081;-59
2021/07/15 06:17:28;;;;;;;1.80;1.20;;;;;;;;;;5090549;28;20058;-58
2021/07/15 06:19:53;;;;;;;2.65;1.15;;;;;;;;;;5091433;28;20024;-58
2021/07/15 06:22:20;;;;;;;3.17;0.90;;;;;;;;;;5093213;28;20074;-58
2021/07/15 06:24:45;;;;;;;1.35;0.88;;;;;;;;;;5102121;28;20019;-59
2021/07/15 06:27:10;;;;;;;2.17;1.13;;;;;;;;;;5086631;28;20016;-57
2021/07/15 06:29:35;;;;;;;2.63;0.90;;;;;;;;;;5083407;28;20047;-58
2021/07/15 06:32:01;;;;;;;2.42;1.10;;;;;;;;;;5081223;28;20020;-59
2021/07/15 06:34:26;;;;;;;4.10;1.30;;;;;;;;;;5082195;28;20071;-59
2021/07/15 06:36:51;;;;;;;1.15;1.02;;;;;;;;;;5088299;28;20725;-58
2021/07/15 06:39:17;;;;;;;3.55;1.02;;;;;;;;;;5091451;28;20356;-59
2021/07/15 06:41:42;;;;;;;2.63;1.00;;;;;;;;;;5093843;28;20032;-59
2021/07/15 06:44:09;;;;;;;2.35;0.98;;;;;;;;;;5094600;28;20331;-60
2021/07/15 06:46:34;;;;;;;1.88;0.70;;;;;;;;;;5079127;28;20020;-59
2021/07/15 06:49:00;;;;;;;2.38;0.90;;;;;;;;;;5080574;28;20028;-60
2021/07/15 06:51:25;;;;;;;1.02;0.57;;;;;;;;;;5092495;28;20043;-59
2021/07/15 06:53:51;;;;;;;1.25;0.50;;;;;;;;;;5091942;28;20429;-58
2021/07/15 06:56:17;;;;;;;2.45;0.50;;;;;;;;;;5090593;28;20059;-58
2021/07/15 06:58:42;;;;;;;1.30;0.57;;;;;;;;;;5093303;28;20514;-59
2021/07/15 07:01:09;;;;;;;2.83;0.80;;;;;;;;;;5091178;28;20486;-58
2021/07/15 07:03:34;;;;;;;1.13;0.65;;;;;;;;;;5093344;28;20056;-58
2021/07/15 07:05:59;;;;;;;3.13;0.65;;;;;;;;;;5079656;28;20042;-58
2021/07/15 07:08:24;;;;;;;0.80;0.60;;;;;;;;;;5092085;28;20431;-59
2021/07/15 07:10:50;;;;;;;1.63;0.97;;;;;;;;;;5093178;28;20737;-59
2021/07/15 07:13:15;;;;;;;0.60;0.60;;;;;;;;;;5092760;28;20277;-59
2021/07/15 07:15:40;;;;;;;2.28;0.70;;;;;;;;;;5082244;28;20027;-59
2021/07/15 07:18:05;;;;;;;1.38;0.70;;;;;;;;;;5087042;28;20506;-59
2021/07/15 07:20:30;;;;;;;0.95;0.65;;;;;;;;;;5090886;28;20161;-59
2021/07/15 07:22:56;;;;;;;0.47;0.47;;;;;;;;;;5087084;28;20030;-59
2021/07/15 07:25:21;;;;;;;1.15;0.40;;;;;;;;;;5081344;28;20649;-59
2021/07/15 07:27:46;;;;;;;1.40;0.50;;;;;;;;;;5091662;28;20022;-59
2021/07/15 07:30:14;;;;;;;1.15;0.50;;;;;;;;;;5083385;28;20028;-58
2021/07/15 07:32:40;;;;;;;0.95;0.65;;;;;;;;;;5079477;28;20016;-58
2021/07/15 07:35:05;;;;;;;0.50;0.50;;;;;;;;;;5089515;28;20467;-58
2021/07/15 07:37:31;;;;;;;0.50;0.35;;;;;;;;;;5092880;28;20425;-60
2021/07/15 07:39:57;;;;;;;1.67;0.50;;;;;;;;;;5087419;28;20123;-59
2021/07/15 07:42:22;;;;;;;0.93;0.50;;;;;;;;;;5074498;28;20107;-60
2021/07/15 07:44:47;;;;;;;0.55;0.55;;;;;;;;;;5090878;28;20026;-59
2021/07/15 07:47:12;;;;;;;1.90;0.60;;;;;;;;;;5090870;28;20027;-59
2021/07/15 07:49:38;;;;;;;0.88;0.50;;;;;;;;;;5091387;28;20039;-59
2021/07/15 07:52:03;;;;;;;0.75;0.38;;;;;;;;;;5092644;28;20048;-59
2021/07/15 07:54:29;;;;;;;1.98;0.60;;;;;;;;;;5092166;28;20657;-58
2021/07/15 07:56:54;;;;;;;1.02;0.50;;;;;;;;;;5089309;28;20336;-58
2021/07/15 07:59:19;;;;;;;1.42;0.57;;;;;;;;;;5091863;28;20035;-59
2021/07/15 08:01:44;;;;;;;2.63;0.90;;;;;;;;;;5092195;28;20055;-58
2021/07/15 08:04:10;;;;;;;2.28;0.63;;;;;;;;;;5091379;28;20117;-59
2021/07/15 08:06:36;;;;;;;1.75;0.60;;;;;;;;;;5075737;28;20023;-58
2021/07/15 08:09:09;;;;;;;1.70;0.70;;;;;;;;;;5084214;28;20392;-58
2021/07/15 08:11:36;;;;;;;2.90;0.90;;;;;;;;;;5088806;28;20027;-58
2021/07/15 08:14:01;;;;;;;0.70;0.50;;;;;;;;;;5090372;28;20020;-59
2021/07/15 08:16:26;;;;;;;0.95;0.60;;;;;;;;;;5086306;28;20040;-59
2021/07/15 08:18:52;;;;;;;2.17;0.50;;;;;;;;;;5091825;28;20103;-59
2021/07/15 08:21:18;;;;;;;2.15;0.50;;;;;;;;;;5075922;28;20031;-58
2021/07/15 08:23:44;;;;;;;0.90;0.57;;;;;;;;;;5083197;28;20436;-59
2021/07/15 08:26:10;;;;;;;0.88;0.65;;;;;;;;;;5083032;28;20111;-59
2021/07/15 08:28:35;;;;;;;2.42;0.50;;;;;;;;;;5090656;28;20026;-58
2021/07/15 08:31:00;;;;;;;1.75;0.50;;;;;;;;;;5079001;28;20087;-60
2021/07/15 08:33:26;;;;;;;0.70;0.50;;;;;;;;;;5090708;28;20024;-60
2021/07/15 08:35:51;;;;;;;1.10;0.60;;;;;;;;;;5088362;28;20028;-60
2021/07/15 08:38:16;;;;;;;1.35;0.52;;;;;;;;;;5091169;28;20056;-60
2021/07/15 08:40:43;;;;;;;0.73;0.60;;;;;;;;;;5071466;28;20028;-60
2021/07/15 08:43:10;;;;;;;1.75;0.60;;;;;;;;;;5087435;28;20046;-59
2021/07/15 08:45:36;;;;;;;2.03;0.40;;;;;;;;;;5087662;28;20024;-60
2021/07/15 08:48:01;;;;;;;0.70;0.60;;;;;;;;;;5089556;28;20038;-60
2021/07/15 08:50:28;;;;;;;1.60;0.68;;;;;;;;;;5090172;28;20028;-58
2021/07/15 08:52:53;;;;;;;2.60;0.82;;;;;;;;;;5089843;28;20044;-59
2021/07/15 08:58:07;;;;;;;2.53;0.60;;;;;;;;;;5048024;28;20029;-59
2021/07/15 09:00:32;;;;;;;0.80;0.57;;;;;;;;;;5049475;28;20033;-59
2021/07/15 09:02:57;;;;;;;1.25;0.50;;;;;;;;;;5038777;28;20143;-60
2021/07/15 09:05:23;;;;;;;1.90;0.63;;;;;;;;;;5026426;28;20033;-59
2021/07/15 09:07:49;;;;;;;0.80;0.60;;;;;;;;;;5037274;28;20267;-59
2021/07/15 09:10:14;;;;;;;1.35;0.60;;;;;;;;;;5044911;28;20029;-59
2021/07/15 09:12:40;;;;;;;3.53;0.60;;;;;;;;;;5046139;28;20036;-59
2021/07/15 09:15:06;;;;;;;0.95;0.68;;;;;;;;;;5040869;28;20444;-59
2021/07/15 09:17:33;;;;;;;0.98;0.40;;;;;;;;;;5042586;28;20021;-59
2021/07/15 09:19:58;;;;;;;1.15;0.40;;;;;;;;;;5043194;28;20025;-59
2021/07/15 09:22:26;;;;;;;0.75;0.60;;;;;;;;;;5046809;28;20033;-58
2021/07/15 09:24:51;;;;;;;0.65;0.60;;;;;;;;;;5045769;28;20025;-58
2021/07/15 09:27:24;;;;;;;0.85;0.40;;;;;;;;;;5045598;28;20134;-58
2021/07/15 09:30:08;;;;;;;0.65;0.50;;;;;;;;;;5031457;28;20083;-58
2021/07/15 09:32:33;;;;;;;2.75;0.50;;;;;;;;;;5033125;28;20028;-58
2021/07/15 09:35:06;;;;;;;0.82;0.40;;;;;;;;;;5049072;28;20033;-58
2021/07/15 09:37:34;;;;;;;1.85;0.43;;;;;;;;;;5070770;28;20035;-59
2021/07/15 09:39:59;;;;;;;1.15;0.40;;;;;;;;;;5078625;28;20012;-59
2021/07/15 09:42:25;;;;;;;1.15;0.47;;;;;;;;;;5079128;28;20536;-59
2021/07/15 09:44:51;;;;;;;2.05;0.40;;;;;;;;;;5079802;28;20028;-59
2021/07/15 09:47:33;;;;;;;1.63;0.82;;;;;;;;;;5080013;28;20061;-59
2021/07/15 09:49:59;;;;;;;0.90;0.40;;;;;;;;;;5090801;28;20024;-59
2021/07/15 09:52:25;;;;;;;2.38;0.40;;;;;;;;;;5090637;28;20058;-59
2021/07/15 09:54:50;;;;;;;0.95;0.60;;;;;;;;;;5092757;28;20052;-59
2021/07/15 09:57:24;;;;;;;0.90;0.50;;;;;;;;;;5091889;28;20012;-59
2021/07/15 09:59:49;;;;;;;;;;;;;;;;;;5094501;28;20056;-59
2021/07/15 10:02:26;;;;;;;1.30;0.52;;;;;;;;;;5094470;28;19946;-59
2021/07/15 10:04:52;;;;;;;1.48;0.50;;;;;;;;;;5080980;28;20028;-59
2021/07/15 10:07:25;;;;;;;1.27;0.50;;;;;;;;;;5073425;28;20456;-59
2021/07/15 10:10:10;;;;;;;0.55;0.50;;;;;;;;;;5073010;28;20024;-59
2021/07/15 10:12:36;;;;;;;1.10;0.40;;;;;;;;;;5073879;28;20065;-58
2021/07/15 10:15:07;;;;;;;2.47;0.43;;;;;;;;;;5078179;28;20020;-59
2021/07/15 10:17:39;;;;;;;1.80;0.60;;;;;;;;;;5092882;28;20270;-58
2021/07/15 10:20:15;;;;;;;2.58;0.38;;;;;;;;;;5086145;28;20032;-59
2021/07/15 10:22:41;;;;;;;1.83;0.50;;;;;;;;;;5090149;28;20034;-59
2021/07/15 10:25:10;;;;;;;0.50;0.40;;;;;;;;;;5090519;28;20020;-59
2021/07/15 10:27:36;;;;;;;0.93;0.50;;;;;;;;;;5093516;28;20013;-59
2021/07/15 10:30:01;;;;;;;0.90;0.50;;;;;;;;;;5086052;28;20016;-59
2021/07/15 10:32:27;;;;;;;1.35;0.63;;;;;;;;;;5092202;28;20134;-59
2021/07/15 10:34:54;;;;;;;3.90;0.82;;;;;;;;;;5080728;28;20020;-59
2021/07/15 10:37:20;;;;;;;2.17;0.82;;;;;;;;;;5091698;28;20028;-59
2021/07/15 10:39:46;;;;;;;1.02;0.50;;;;;;;;;;5076593;28;20032;-59
2021/07/15 10:42:11;;;;;;;0.70;0.50;;;;;;;;;;5073148;28;20388;-59
2021/07/15 10:44:36;;;;;;;1.20;0.40;;;;;;;;;;5079000;28;20024;-59
2021/07/15 10:47:02;;;;;;;1.73;0.40;;;;;;;;;;5075148;28;20016;-59
2021/07/15 10:49:27;;;;;;;2.00;0.40;;;;;;;;;;5092661;28;20450;-59
2021/07/15 10:51:54;;;;;;;1.30;0.40;;;;;;;;;;5087581;28;20333;-59
2021/07/15 10:54:19;;;;;;;1.42;0.45;;;;;;;;;;5092512;28;20020;-59
2021/07/15 10:56:46;;;;;;;0.98;0.43;;;;;;;;;;5090399;28;20126;-59
2021/07/15 10:59:22;;;;;;;1.38;0.60;;;;;;;;;;5091939;28;20102;-60
2021/07/15 11:01:47;;;;;;;1.05;0.30;;;;;;;;;;5093268;28;20055;-60
2021/07/15 11:04:17;;;;;;;0.80;0.40;;;;;;;;;;5089275;28;20242;-58
2021/07/15 11:06:44;;;;;;;2.35;0.40;;;;;;;;;;5090070;28;20008;-58
2021/07/15 11:09:11;;;;;;;0.88;0.45;;;;;;;;;;5093243;28;20111;-58
2021/07/15 11:11:40;;;;;;;1.05;0.60;;;;;;;;;;5089361;28;20048;-58
2021/07/15 11:14:06;;;;;;;1.52;0.47;;;;;;;;;;5087708;28;20476;-59
2021/07/15 11:16:50;;;;;;;2.15;0.50;;;;;;;;;;5090867;28;20035;-59
2021/07/15 11:19:34;;;;;;;3.60;0.57;;;;;;;;;;5092578;28;20024;-60
2021/07/15 11:22:00;;;;;;;2.10;0.30;;;;;;;;;;5092480;28;20277;-60
2021/07/15 11:24:40;;;;;;;1.60;0.68;;;;;;;;;;5092923;28;20020;-59
2021/07/15 11:27:24;;;;;;;2.67;0.60;;;;;;;;;;5090358;28;20016;-59
2021/07/15 11:29:50;;;;;;;1.13;0.38;;;;;;;;;;5088330;28;20035;-59
2021/07/15 11:32:26;;;;;;;1.05;0.60;;;;;;;;;;5072959;28;20096;-59
2021/07/15 11:34:53;;;;;;;1.83;0.47;;;;;;;;;;5090553;28;20389;-59
2021/07/15 11:37:25;;;;;;;1.00;0.50;;;;;;;;;;5090231;28;20034;-59
2021/07/15 11:39:50;;;;;;;1.10;0.50;;;;;;;;;;5087696;28;20024;-59
2021/07/15 11:42:19;;;;;;;1.20;0.40;;;;;;;;;;5085583;28;20030;-59
2021/07/15 11:44:56;;;;;;;1.52;0.40;;;;;;;;;;5091721;28;20870;-59
2021/07/15 11:47:40;;;;;;;1.70;0.40;;;;;;;;;;5091035;28;20043;-59
2021/07/15 11:50:06;;;;;;;0.73;0.68;;;;;;;;;;5091807;28;20023;-58
2021/07/15 11:52:31;;;;;;;0.63;0.30;;;;;;;;;;5092571;28;20044;-58
2021/07/15 11:54:56;;;;;;;1.10;0.40;;;;;;;;;;5090652;28;20031;-58
2021/07/15 11:57:23;;;;;;;2.13;0.60;;;;;;;;;;5089495;28;20394;-59
2021/07/15 12:00:04;;;;;;;1.48;0.40;;;;;;;;;;5091499;28;20008;-58
2021/07/15 12:02:29;;;;;;;0.45;0.30;;;;;;;;;;5090735;28;20379;-59
2021/07/15 12:05:10;;;;;;;1.23;0.40;;;;;;;;;;5070863;28;20490;-59
2021/07/15 12:07:59;;;;;;;0.63;0.30;;;;;;;;;;5090801;28;20066;-59
2021/07/15 12:10:25;;;;;;;1.20;0.50;;;;;;;;;;5089369;28;20081;-59
2021/07/15 12:12:51;;;;;;;0.55;0.30;;;;;;;;;;5091535;28;20117;-59
2021/07/15 12:15:19;;;;;;;2.88;0.40;;;;;;;;;;5085689;28;20311;-59
2021/07/15 12:17:45;;;;;;;0.40;0.30;;;;;;;;;;5090984;28;20019;-59
2021/07/15 12:20:11;;;;;;;1.50;0.40;;;;;;;;;;5090147;28;20471;-59
2021/07/15 12:22:45;;;;;;;0.52;0.40;;;;;;;;;;5096504;28;20069;-59
2021/07/15 12:25:18;;;;;;;0.57;0.30;;;;;;;;;;5092831;28;20434;-59
2021/07/15 12:27:44;;;;;;;0.45;0.32;;;;;;;;;;5092736;28;20035;-59
2021/07/15 12:30:10;;;;;;;0.80;0.30;;;;;;;;;;5090577;28;20022;-59
2021/07/15 12:32:35;;;;;;;0.40;0.30;;;;;;;;;;5090616;28;20087;-59
2021/07/15 12:35:08;;;;;;;0.63;0.50;;;;;;;;;;5088753;28;20411;-59
2021/07/15 12:37:34;;;;;;;1.40;0.50;;;;;;;;;;5089633;28;20093;-59
2021/07/15 12:39:59;;;;;;;2.73;0.40;;;;;;;;;;5090185;28;20016;-59
2021/07/15 12:42:24;;;;;;;0.98;0.40;;;;;;;;;;5087973;28;20112;-60
2021/07/15 12:44:49;;;;;;;2.15;0.60;;;;;;;;;;5089201;28;20021;-59
2021/07/15 12:47:15;;;;;;;1.08;0.70;;;;;;;;;;5088649;28;20515;-57
2021/07/15 12:49:40;;;;;;;2.33;1.00;;;;;;;;;;5090277;28;20047;-58
2021/07/15 12:52:05;;;;;;;2.67;1.67;;;;;;;;;;5090054;28;20036;-58
2021/07/15 12:54:35;;;;;;;1.65;1.15;;;;;;;;;;5089445;28;20266;-58
2021/07/15 12:57:04;;;;;;;2.45;1.50;;;;;;;;;;5086508;28;20052;-58
2021/07/15 12:59:31;;;;;;;1.67;1.42;;;;;;;;;;5089298;28;20112;-60
2021/07/15 13:01:56;;;;;;;2.75;1.55;;;;;;;;;;5088805;28;20462;-58
2021/07/15 13:04:22;;;;;;;2.17;1.90;;;;;;;;;;5090444;28;20471;-59
2021/07/15 13:06:48;;;;;;;3.15;1.67;;;;;;;;;;5087387;28;20254;-58
2021/07/15 13:09:53;;;;;;;1.70;1.20;;;;;;;;;;5090811;28;20098;-58
2021/07/15 13:14:56;;;;;;;2.80;1.92;;;;;;;;;;5092831;28;20060;-60
2021/07/15 13:17:45;;;;;;;3.63;2.70;;;;;;;;;;5089552;28;20016;-61
2021/07/15 13:20:18;;;;;;;3.53;1.90;;;;;;;;;;5087908;28;20411;-58
2021/07/15 13:22:44;;;;;;;1.88;1.45;;;;;;;;;;5089407;28;20575;-59
2021/07/15 13:25:14;;;;;;;0.98;0.40;;;;;;;;;;5081295;28;20118;-60
2021/07/15 13:27:42;;;;;;;1.08;0.55;;;;;;;;;;5081082;28;20060;-59
2021/07/15 13:30:08;;;;;;;2.75;1.10;;;;;;;;;;5085515;28;20016;-58
2021/07/15 13:32:33;;;;;;;2.58;1.38;;;;;;;;;;5089834;28;20051;-58
2021/07/15 13:34:59;;;;;;;3.13;1.98;;;;;;;;;;5087623;28;20052;-59
2021/07/15 13:37:24;;;;;;;4.68;3.08;;;;;;;;;;5082512;28;20384;-60
2021/07/15 13:39:50;;;;;;;3.80;2.67;;;;;;;;;;5090908;28;20326;-60
2021/07/15 13:42:18;;;;;;;4.47;2.92;;;;;;;;;;5089051;28;20173;-61
2021/07/15 13:44:49;;;;;;;3.80;2.40;;;;;;;;;;5086774;28;20422;-60
2021/07/15 13:47:20;;;;;;;1.60;1.02;;;;;;;;;;5088097;28;20047;-60
2021/07/15 13:49:50;;;;;;;1.95;1.23;;;;;;;;;;5086603;28;20031;-60
2021/07/15 13:52:21;;;;;;;0.68;0.50;;;;;;;;;;5088213;28;20044;-60
2021/07/15 13:54:47;;;;;;;1.77;0.60;;;;;;;;;;5087609;28;20154;-60
2021/07/15 13:57:12;;;;;;;1.77;0.63;;;;;;;;;;5086103;28;20028;-59
2021/07/15 13:59:39;;;;;;;1.50;0.40;;;;;;;;;;5092368;28;20028;-59
2021/07/15 14:02:11;;;;;;;0.93;0.60;;;;;;;;;;5085758;28;20021;-59
2021/07/15 14:04:43;;;;;;;1.55;0.50;;;;;;;;;;5092792;28;20025;-59
2021/07/15 14:07:09;;;;;;;1.38;0.35;;;;;;;;;;5087402;28;20786;-59
2021/07/15 14:09:35;;;;;;;0.90;0.30;;;;;;;;;;5085097;28;20036;-58
2021/07/15 14:12:02;;;;;;;1.92;0.50;;;;;;;;;;5088356;28;20090;-58
2021/07/15 14:14:28;;;;;;;1.20;0.40;;;;;;;;;;5088666;28;20483;-59
2021/07/15 14:16:54;;;;;;;2.00;0.30;;;;;;;;;;5085321;28;20027;-59
2021/07/15 14:19:20;;;;;;;1.83;0.40;;;;;;;;;;5091950;28;20099;-59
2021/07/15 14:21:45;;;;;;;0.55;0.40;;;;;;;;;;5080669;28;20024;-60
2021/07/15 14:24:11;;;;;;;0.45;0.40;;;;;;;;;;5095154;28;20020;-59
2021/07/15 14:26:36;;;;;;;0.70;0.25;;;;;;;;;;5088348;28;20031;-59
2021/07/15 14:29:01;;;;;;;0.95;0.30;;;;;;;;;;5086156;28;20511;-59
2021/07/15 14:31:27;;;;;;;0.40;0.40;;;;;;;;;;5089299;28;20066;-59
2021/07/15 14:33:52;;;;;;;1.03;0.50;;;;;;;;;;5090552;28;20009;-60
2021/07/15 14:36:17;;;;;;;0.40;0.30;;;;;;;;;;5090042;28;20254;-60
2021/07/15 14:38:42;;;;;;;0.60;0.20;;;;;;;;;;5092471;28;20021;-60
2021/07/15 14:41:08;;;;;;;0.43;0.20;;;;;;;;;;5089675;28;20602;-60
2021/07/15 14:43:34;;;;;;;0.33;0.20;;;;;;;;;;5086615;28;20718;-60
2021/07/15 14:45:59;;;;;;;0.73;0.30;;;;;;;;;;5087105;28;20032;-60
2021/07/15 14:48:25;;;;;;;0.60;0.25;;;;;;;;;;5090765;28;20027;-59
2021/07/15 14:50:50;;;;;;;0.38;0.20;;;;;;;;;;5095131;28;20062;-59